Pimentel, Peru
Current Conditions -  °F | °C
As of 5:00 PM on Friday 19 Dec 2014 (Local Time) from SPHI Reporting Station
Clear Clear  
Wind Chill: 73°   Ceiling: Unl
Heat Index: 73°   Visibility: 6mi
Dew Point: 63°   Wind: 23mph
Humidity: 69%   Direction: 180°S
Pressure: 29.83"   Gusts: NA
Location:  6.83°S, 79.93°W
Report Text: SPHI 192200Z 18020KT CAVOK 23/17 Q1010 RMK PP000TMAX.26.0
Loading
Personal Weather Stations






























Interactive Weather Map New forecast layout! Learn more

10-Day Weather Forecast

Advertisements
Track Severe Weather on mobile